createdAt,value
2023-04-29T00:00:10.416Z,100165.34
2023-04-29T00:02:37.085Z,100179.88
2023-04-29T00:05:05.467Z,100178.81
2023-04-29T00:07:36.424Z,100170.94
2023-04-29T00:10:03.326Z,100172.00
2023-04-29T00:12:31.852Z,100166.63
2023-04-29T00:14:58.380Z,100173.31
2023-04-29T00:17:25.260Z,100178.50
2023-04-29T00:19:52.039Z,100176.25
2023-04-29T00:22:19.022Z,100175.69
2023-04-29T00:24:45.671Z,100169.25
2023-04-29T00:27:13.412Z,100165.69
2023-04-29T00:29:39.930Z,100160.00
2023-04-29T00:32:06.418Z,100155.06
2023-04-29T00:34:32.902Z,100156.56
2023-04-29T00:36:59.349Z,100168.16
2023-04-29T00:39:25.946Z,100159.56
2023-04-29T00:41:52.956Z,100157.69
2023-04-29T00:44:19.437Z,100157.16
2023-04-29T00:46:45.976Z,100152.75
2023-04-29T00:49:13.025Z,100151.91
2023-04-29T00:51:40.728Z,100154.47
2023-04-29T00:54:08.101Z,100157.38
2023-04-29T00:56:35.898Z,100152.81
2023-04-29T00:59:03.571Z,100139.50
2023-04-29T01:01:30.605Z,100129.91
2023-04-29T01:03:58.274Z,100138.72
2023-04-29T01:06:41.964Z,100146.66
2023-04-29T01:09:22.823Z,100143.72
2023-04-29T01:12:06.781Z,100139.06
2023-04-29T01:14:34.855Z,100148.69
2023-04-29T01:17:06.445Z,100142.59
2023-04-29T01:19:48.670Z,100137.34
2023-04-29T01:22:17.571Z,100145.53
2023-04-29T01:24:44.035Z,100140.16
2023-04-29T01:27:30.188Z,100144.22
2023-04-29T01:30:02.541Z,100141.41
2023-04-29T01:32:44.059Z,100145.34
2023-04-29T01:35:38.354Z,100137.47
2023-04-29T01:38:34.282Z,100144.22
2023-04-29T01:41:17.199Z,100150.31
2023-04-29T01:43:47.789Z,100143.13
2023-04-29T01:46:16.517Z,100147.56
2023-04-29T01:48:43.528Z,100141.47
2023-04-29T01:51:10.013Z,100141.28
2023-04-29T01:53:36.449Z,100144.88
2023-04-29T01:56:02.909Z,100142.94
2023-04-29T01:58:29.537Z,100136.56
2023-04-29T02:00:56.066Z,100137.19
2023-04-29T02:03:22.876Z,100134.78
2023-04-29T02:05:50.544Z,100140.78
2023-04-29T02:08:20.081Z,100133.91
2023-04-29T02:10:56.469Z,100127.31
2023-04-29T02:13:23.115Z,100134.72
2023-04-29T02:15:49.633Z,100138.47
2023-04-29T02:18:16.606Z,100119.66
2023-04-29T02:20:43.519Z,100129.41
2023-04-29T02:23:09.997Z,100130.63
2023-04-29T02:25:37.161Z,100124.44
2023-04-29T02:28:03.677Z,100120.38
2023-04-29T02:30:30.742Z,100120.00
2023-04-29T02:32:57.262Z,100118.56
2023-04-29T02:35:23.751Z,100119.66
2023-04-29T02:37:50.189Z,100120.97
2023-04-29T02:40:16.821Z,100122.16
2023-04-29T02:42:43.264Z,100122.31
2023-04-29T02:45:10.514Z,100117.84
2023-04-29T02:47:37.279Z,100118.34
2023-04-29T02:50:04.824Z,100115.53
2023-04-29T02:52:31.321Z,100108.44
2023-04-29T02:54:57.930Z,100119.66
2023-04-29T02:57:24.395Z,100116.19
2023-04-29T02:59:51.491Z,100114.41
2023-04-29T03:02:18.524Z,100114.69
2023-04-29T03:04:45.622Z,100107.00
2023-04-29T03:07:12.132Z,100118.81
2023-04-29T03:09:38.645Z,100101.94
2023-04-29T03:12:05.272Z,100105.50
2023-04-29T03:14:31.716Z,100116.97
2023-04-29T03:16:58.390Z,100117.50
2023-04-29T03:19:24.971Z,100105.13
2023-04-29T03:21:53.395Z,100103.19
2023-04-29T03:24:20.476Z,100108.44
2023-04-29T03:26:47.398Z,100103.88
2023-04-29T03:29:13.889Z,100103.94
2023-04-29T03:31:40.525Z,100110.41
2023-04-29T03:34:07.100Z,100106.22
2023-04-29T03:36:33.603Z,100098.47
2023-04-29T03:39:00.352Z,100104.47
2023-04-29T03:41:27.023Z,100104.25
2023-04-29T03:43:54.943Z,100105.22
2023-04-29T03:46:21.759Z,100106.94
2023-04-29T03:48:48.337Z,100115.75
2023-04-29T03:51:14.987Z,100113.50
2023-04-29T03:53:41.628Z,100113.38
2023-04-29T03:56:08.171Z,100105.44
2023-04-29T03:58:34.669Z,100101.00
2023-04-29T04:01:01.442Z,100100.47
2023-04-29T04:03:28.361Z,100110.19
2023-04-29T04:05:54.999Z,100117.53
2023-04-29T04:08:21.504Z,100107.16
2023-04-29T04:10:48.065Z,100097.56
2023-04-29T04:13:14.593Z,100096.78
2023-04-29T04:15:42.359Z,100101.19
2023-04-29T04:18:08.891Z,100097.91
2023-04-29T04:20:38.599Z,100099.09
2023-04-29T04:23:05.593Z,100087.34
2023-04-29T04:25:32.043Z,100096.88
2023-04-29T04:27:58.593Z,100093.59
2023-04-29T04:30:25.107Z,100093.16
2023-04-29T04:32:51.713Z,100094.19
2023-04-29T04:35:18.704Z,100086.91
2023-04-29T04:37:45.525Z,100095.88
2023-04-29T04:40:13.742Z,100092.28
2023-04-29T04:42:40.331Z,100086.75
2023-04-29T04:45:07.477Z,100083.69
2023-04-29T04:47:33.974Z,100087.06
2023-04-29T04:50:00.538Z,100082.09
2023-04-29T04:52:27.143Z,100079.19
2023-04-29T04:54:53.662Z,100080.63
2023-04-29T04:57:20.203Z,100085.78
2023-04-29T04:59:46.719Z,100080.81
2023-04-29T05:02:13.227Z,100075.69
2023-04-29T05:04:39.715Z,100076.56
2023-04-29T05:07:06.178Z,100070.88
2023-04-29T05:09:32.938Z,100079.38
2023-04-29T05:11:59.601Z,100077.53
2023-04-29T05:14:26.579Z,100073.72
2023-04-29T05:16:53.510Z,100083.97
2023-04-29T05:19:20.247Z,100073.84
2023-04-29T05:21:46.745Z,100082.13
2023-04-29T05:24:13.214Z,100073.31
2023-04-29T05:26:39.698Z,100080.25
2023-04-29T05:29:06.235Z,100075.00
2023-04-29T05:31:33.475Z,100083.81
2023-04-29T05:34:00.026Z,100079.34
2023-04-29T05:36:28.026Z,100075.38
2023-04-29T05:38:54.573Z,100082.72
2023-04-29T05:41:21.432Z,100087.44
2023-04-29T05:43:47.992Z,100079.09
2023-04-29T05:46:14.545Z,100075.25
2023-04-29T05:48:41.256Z,100078.59
2023-04-29T05:51:07.837Z,100072.03
2023-04-29T05:53:35.750Z,100075.25
2023-04-29T05:56:06.544Z,100077.44
2023-04-29T05:58:33.278Z,100074.34
2023-04-29T06:01:00.264Z,100086.09
2023-04-29T06:03:27.425Z,100081.25
2023-04-29T06:05:54.198Z,100074.50
2023-04-29T06:08:21.247Z,100073.63
2023-04-29T06:10:47.896Z,100078.22
2023-04-29T06:13:14.345Z,100077.03
2023-04-29T06:15:40.927Z,100076.63
2023-04-29T06:18:07.474Z,100072.94
2023-04-29T06:20:36.084Z,100070.44
2023-04-29T06:23:05.253Z,100077.47
2023-04-29T06:25:31.816Z,100070.84
2023-04-29T06:27:58.598Z,100066.94
2023-04-29T06:30:25.281Z,100060.69
2023-04-29T06:32:51.864Z,100062.69
2023-04-29T06:35:18.542Z,100070.53
2023-04-29T06:37:45.212Z,100068.44
2023-04-29T06:40:12.000Z,100071.69
2023-04-29T06:42:38.716Z,100066.53
2023-04-29T06:45:05.833Z,100065.31
2023-04-29T06:47:33.043Z,100060.47
2023-04-29T06:49:59.667Z,100062.25
2023-04-29T06:52:26.316Z,100072.66
2023-04-29T06:54:52.852Z,100064.41
2023-04-29T06:57:20.752Z,100065.66
2023-04-29T06:59:47.331Z,100059.75
2023-04-29T07:02:13.919Z,100067.81
2023-04-29T07:04:41.076Z,100064.47
2023-04-29T07:07:07.697Z,100063.38
2023-04-29T07:09:34.213Z,100062.63
2023-04-29T07:12:03.597Z,100052.91
2023-04-29T07:14:30.500Z,100054.25
2023-04-29T07:16:57.155Z,100054.69
2023-04-29T07:19:23.837Z,100053.69
2023-04-29T07:21:50.291Z,100048.28
2023-04-29T07:24:16.868Z,100057.53
2023-04-29T07:26:45.266Z,100056.69
2023-04-29T07:29:11.831Z,100045.75
2023-04-29T07:31:38.653Z,100052.69
2023-04-29T07:34:05.990Z,100050.78
2023-04-29T07:36:33.060Z,100064.31
2023-04-29T07:38:59.907Z,100046.59
2023-04-29T07:41:27.265Z,100039.13
2023-04-29T07:43:53.899Z,100043.00
2023-04-29T07:46:20.606Z,100044.47
2023-04-29T07:48:47.196Z,100041.66
2023-04-29T07:51:14.614Z,100040.00
2023-04-29T07:53:41.674Z,100050.53
2023-04-29T07:56:08.720Z,100045.31
2023-04-29T07:58:35.413Z,100049.75
2023-04-29T08:01:12.259Z,100039.41
2023-04-29T08:03:41.433Z,100046.53
2023-04-29T08:06:08.896Z,100048.84
2023-04-29T08:08:35.804Z,100048.97
2023-04-29T08:11:02.333Z,100048.31
2023-04-29T08:13:28.922Z,100042.47
2023-04-29T08:15:55.793Z,100053.88
2023-04-29T08:18:22.418Z,100046.00
2023-04-29T08:20:52.045Z,100053.66
2023-04-29T08:23:18.756Z,100039.13
2023-04-29T08:25:45.845Z,100059.34
2023-04-29T08:28:12.366Z,100043.53
2023-04-29T08:30:41.738Z,100055.56
2023-04-29T08:33:08.967Z,100040.25
2023-04-29T08:35:38.897Z,100040.97
2023-04-29T08:38:06.750Z,100047.47
2023-04-29T08:40:44.043Z,100040.47
2023-04-29T08:43:10.830Z,100045.28
2023-04-29T08:45:37.757Z,100038.78
2023-04-29T08:48:04.816Z,100026.97
2023-04-29T08:50:31.854Z,100039.88
2023-04-29T08:52:58.600Z,100031.31
2023-04-29T08:55:26.251Z,100031.97
2023-04-29T08:57:55.106Z,100029.53
2023-04-29T09:00:22.682Z,100035.03
2023-04-29T09:02:54.185Z,100025.25
2023-04-29T09:05:21.998Z,100027.13
2023-04-29T09:07:48.906Z,100019.31
2023-04-29T09:10:16.963Z,100032.38
2023-04-29T09:12:43.643Z,100039.84
2023-04-29T09:15:10.755Z,100045.81
2023-04-29T09:17:42.656Z,100027.13
2023-04-29T09:20:21.360Z,100024.53
2023-04-29T09:22:52.730Z,100021.19
2023-04-29T09:25:19.842Z,100026.38
2023-04-29T09:27:46.808Z,100041.38
2023-04-29T09:30:13.953Z,100027.75
2023-04-29T09:32:41.145Z,100018.69
2023-04-29T09:35:27.712Z,100029.38
2023-04-29T09:38:08.980Z,100026.09
2023-04-29T09:40:46.586Z,100021.84
2023-04-29T09:43:23.992Z,100017.78
2023-04-29T09:45:50.802Z,100016.94
2023-04-29T09:48:17.445Z,100017.69
2023-04-29T09:50:45.033Z,100012.91
2023-04-29T09:53:12.077Z,100013.59
2023-04-29T09:55:53.545Z,100006.63
2023-04-29T09:58:31.449Z,100012.25
2023-04-29T10:01:01.708Z,100005.81
2023-04-29T10:03:33.880Z,100006.16
2023-04-29T10:06:01.805Z,99997.81
2023-04-29T10:08:32.393Z,99996.59
2023-04-29T10:11:03.408Z,99984.81
2023-04-29T10:13:30.615Z,99991.31
2023-04-29T10:16:08.827Z,99991.97
2023-04-29T10:18:37.754Z,99980.53
2023-04-29T10:21:08.009Z,99983.97
2023-04-29T10:23:34.602Z,99979.25
2023-04-29T10:26:01.390Z,99984.75
2023-04-29T10:28:32.550Z,99977.16
2023-04-29T10:31:05.075Z,99965.88
2023-04-29T10:33:33.834Z,99969.50
2023-04-29T10:36:01.204Z,99966.13
2023-04-29T10:38:41.776Z,99975.97
2023-04-29T10:41:14.454Z,99962.47
2023-04-29T10:43:41.050Z,99971.78
2023-04-29T10:46:16.331Z,99962.88
2023-04-29T10:48:46.857Z,99983.16
2023-04-29T10:51:14.377Z,99959.16
2023-04-29T10:54:01.225Z,99962.81
2023-04-29T10:56:54.167Z,99957.78
2023-04-29T10:59:22.870Z,99961.31
2023-04-29T11:01:53.436Z,99962.22
2023-04-29T11:04:21.694Z,99973.88
2023-04-29T11:06:56.450Z,99969.44
2023-04-29T11:09:31.312Z,99959.91
2023-04-29T11:12:06.111Z,99957.13
2023-04-29T11:14:43.032Z,99955.78
2023-04-29T11:17:12.828Z,99954.06
2023-04-29T11:19:47.125Z,99961.78
2023-04-29T11:22:24.784Z,99946.47
2023-04-29T11:24:57.330Z,99939.16
2023-04-29T11:27:26.364Z,99940.47
2023-04-29T11:29:58.714Z,99943.78
2023-04-29T11:32:30.185Z,99948.94
2023-04-29T11:35:08.947Z,99940.78
2023-04-29T11:37:35.991Z,99940.69
2023-04-29T11:40:08.721Z,99931.31
2023-04-29T11:42:39.130Z,99932.03
2023-04-29T11:45:06.925Z,99931.69
2023-04-29T11:47:33.684Z,99927.03
2023-04-29T11:50:04.958Z,99925.16
2023-04-29T11:52:32.242Z,99939.69
2023-04-29T11:55:00.208Z,99934.44
2023-04-29T11:57:27.108Z,99918.19
2023-04-29T11:59:53.844Z,99923.63
2023-04-29T12:02:23.856Z,99906.00
2023-04-29T12:04:51.400Z,99915.84
2023-04-29T12:07:18.626Z,99900.25
2023-04-29T12:09:46.277Z,99910.13
2023-04-29T12:12:14.934Z,99910.41
2023-04-29T12:14:42.355Z,99905.91
2023-04-29T12:17:11.963Z,99899.81
2023-04-29T12:19:40.255Z,99909.06
2023-04-29T12:22:08.290Z,99905.91
2023-04-29T12:24:39.273Z,99908.91
2023-04-29T12:27:09.495Z,99900.28
2023-04-29T12:29:40.605Z,99895.22
2023-04-29T12:32:08.144Z,99900.94
2023-04-29T12:34:34.847Z,99888.88
2023-04-29T12:37:02.476Z,99891.81
2023-04-29T12:39:30.096Z,99899.22
2023-04-29T12:42:01.579Z,99899.00
2023-04-29T12:44:36.043Z,99888.25
2023-04-29T12:47:10.303Z,99885.72
2023-04-29T12:49:46.905Z,99890.56
2023-04-29T12:52:14.101Z,99870.25
2023-04-29T12:54:43.369Z,99882.94
2023-04-29T12:57:11.086Z,99882.44
2023-04-29T12:59:38.416Z,99873.00
2023-04-29T13:02:05.108Z,99888.03
2023-04-29T13:04:31.803Z,99873.09
2023-04-29T13:07:02.718Z,99873.94
2023-04-29T13:09:30.505Z,99866.34
2023-04-29T13:11:57.719Z,99869.47
2023-04-29T13:14:24.275Z,99869.91
2023-04-29T13:16:50.894Z,99870.34
2023-04-29T13:19:29.589Z,99863.41
2023-04-29T13:22:03.884Z,99866.13
2023-04-29T13:24:30.690Z,99869.22
2023-04-29T13:26:58.202Z,99868.16
2023-04-29T13:29:24.838Z,99862.31
2023-04-29T13:31:51.409Z,99859.06
2023-04-29T13:34:18.040Z,99863.97
2023-04-29T13:36:44.909Z,99855.06
2023-04-29T13:39:11.516Z,99857.34
2023-04-29T13:41:41.255Z,99855.25
2023-04-29T13:44:23.583Z,99856.16
2023-04-29T13:46:55.752Z,99864.22
2023-04-29T13:49:55.790Z,99857.91
2023-04-29T13:54:58.827Z,99858.75
2023-04-29T13:58:30.308Z,99860.56
2023-04-29T14:00:38.170Z,99854.81
2023-04-29T14:05:33.366Z,99856.97
2023-04-29T14:08:00.210Z,99851.75
2023-04-29T14:10:26.781Z,99857.00
2023-04-29T14:12:53.330Z,99843.13
2023-04-29T14:15:19.863Z,99857.19
2023-04-29T14:17:46.387Z,99851.56
2023-04-29T14:20:13.536Z,99849.50
2023-04-29T14:22:40.043Z,99852.44
2023-04-29T14:25:08.005Z,99849.47
2023-04-29T14:27:35.864Z,99840.84
2023-04-29T14:30:02.406Z,99841.66
2023-04-29T14:32:29.040Z,99846.09
2023-04-29T14:34:55.947Z,99840.84
2023-04-29T14:37:22.622Z,99838.72
2023-04-29T14:39:49.243Z,99841.47
2023-04-29T14:42:15.822Z,99850.31
2023-04-29T14:44:42.402Z,99843.59
2023-04-29T14:47:09.494Z,99838.53
2023-04-29T14:49:36.202Z,99846.50
2023-04-29T14:52:02.848Z,99840.41
2023-04-29T14:54:29.499Z,99837.50
2023-04-29T14:56:56.096Z,99836.22
2023-04-29T14:59:22.665Z,99835.41
2023-04-29T15:01:49.586Z,99828.19
2023-04-29T15:04:16.703Z,99832.84
2023-04-29T15:06:43.357Z,99836.47
2023-04-29T15:09:09.925Z,99821.03
2023-04-29T15:11:36.542Z,99838.75
2023-04-29T15:14:03.151Z,99840.41
2023-04-29T15:16:30.396Z,99836.19
2023-04-29T15:18:57.014Z,99835.78
2023-04-29T15:21:23.607Z,99842.50
2023-04-29T15:23:50.193Z,99837.22
2023-04-29T15:26:16.851Z,99836.00
2023-04-29T15:28:45.661Z,99842.53
2023-04-29T15:31:12.702Z,99834.53
2023-04-29T15:33:39.301Z,99842.94
2023-04-29T15:36:06.815Z,99847.34
2023-04-29T15:38:33.332Z,99843.56
2023-04-29T15:41:01.497Z,99840.19
2023-04-29T15:43:28.676Z,99839.16
2023-04-29T15:45:55.903Z,99846.53
2023-04-29T15:48:22.452Z,99836.63
2023-04-29T15:50:48.931Z,99840.41
2023-04-29T15:53:15.585Z,99826.69
2023-04-29T15:55:42.059Z,99828.63
2023-04-29T15:58:08.638Z,99829.03
2023-04-29T16:00:35.121Z,99818.28
2023-04-29T16:03:01.680Z,99829.63
2023-04-29T16:05:28.906Z,99827.56
2023-04-29T16:07:55.435Z,99823.53
2023-04-29T16:10:22.078Z,99827.53
2023-04-29T16:12:49.045Z,99833.22
2023-04-29T16:15:15.843Z,99831.31
2023-04-29T16:17:49.373Z,99831.50
2023-04-29T16:20:17.286Z,99835.28
2023-04-29T16:22:43.967Z,99839.94
2023-04-29T16:25:11.514Z,99841.59
2023-04-29T16:27:38.001Z,99836.91
2023-04-29T16:30:05.385Z,99834.41
2023-04-29T16:32:33.126Z,99837.38
2023-04-29T16:35:01.493Z,99829.56
2023-04-29T16:37:28.664Z,99841.81
2023-04-29T16:39:55.519Z,99844.97
2023-04-29T16:42:22.070Z,99845.16
2023-04-29T16:44:48.539Z,99852.28
2023-04-29T16:47:15.323Z,99849.50
2023-04-29T16:49:42.519Z,99852.25
2023-04-29T16:52:09.261Z,99851.19
2023-04-29T16:54:36.621Z,99856.88
2023-04-29T16:57:03.196Z,99861.28
2023-04-29T16:59:30.440Z,99858.88
2023-04-29T17:01:57.279Z,99857.19
2023-04-29T17:04:23.990Z,99862.56
2023-04-29T17:06:51.017Z,99870.72
2023-04-29T17:09:17.868Z,99877.19
2023-04-29T17:11:44.430Z,99869.72
2023-04-29T17:14:11.176Z,99874.28
2023-04-29T17:16:37.881Z,99871.16
2023-04-29T17:19:04.498Z,99878.13
2023-04-29T17:21:32.465Z,99877.00
2023-04-29T17:23:59.217Z,99878.03
2023-04-29T17:26:25.953Z,99875.84
2023-04-29T17:28:52.763Z,99871.59
2023-04-29T17:31:24.884Z,99875.50
2023-04-29T17:34:04.984Z,99877.84
2023-04-29T17:36:33.118Z,99878.97
2023-04-29T17:38:59.782Z,99878.53
2023-04-29T17:41:26.304Z,99884.03
2023-04-29T17:43:53.249Z,99882.50
2023-04-29T17:46:19.968Z,99882.22
2023-04-29T17:48:46.554Z,99876.78
2023-04-29T17:51:13.318Z,99878.81
2023-04-29T17:53:39.857Z,99878.19
2023-04-29T17:56:06.459Z,99879.03
2023-04-29T17:58:33.011Z,99888.88
2023-04-29T18:00:59.525Z,99886.88
2023-04-29T18:03:27.543Z,99879.28
2023-04-29T18:05:54.215Z,99883.38
2023-04-29T18:08:21.245Z,99885.19
2023-04-29T18:10:47.757Z,99885.31
2023-04-29T18:13:14.388Z,99893.09
2023-04-29T18:15:40.890Z,99896.69
2023-04-29T18:18:08.261Z,99897.78
2023-04-29T18:20:35.362Z,99893.81
2023-04-29T18:23:01.858Z,99896.41
2023-04-29T18:25:28.347Z,99889.59
2023-04-29T18:28:07.776Z,99893.03
2023-04-29T18:30:42.300Z,99892.03
2023-04-29T18:33:09.006Z,99895.97
2023-04-29T18:35:35.553Z,99892.44
2023-04-29T18:38:02.427Z,99887.00
2023-04-29T18:40:29.200Z,99905.69
2023-04-29T18:42:55.726Z,99907.00
2023-04-29T18:45:22.829Z,99896.91
2023-04-29T18:47:49.545Z,99902.91
2023-04-29T18:50:16.109Z,99901.78
2023-04-29T18:52:42.610Z,99906.22
2023-04-29T18:55:09.442Z,99909.25
2023-04-29T18:57:35.992Z,99917.69
2023-04-29T19:00:03.846Z,99916.09
2023-04-29T19:02:30.640Z,99919.38
2023-04-29T19:04:57.326Z,99915.16
2023-04-29T19:07:23.925Z,99920.31
2023-04-29T19:09:50.563Z,99917.25
2023-04-29T19:12:17.052Z,99918.72
2023-04-29T19:14:43.544Z,99918.56
2023-04-29T19:17:10.729Z,99924.28
2023-04-29T19:19:37.216Z,99922.28
2023-04-29T19:22:05.261Z,99927.59
2023-04-29T19:24:32.711Z,99919.41
2023-04-29T19:26:59.170Z,99921.03
2023-04-29T19:29:25.737Z,99923.34
2023-04-29T19:31:52.997Z,99924.13
2023-04-29T19:34:19.628Z,99924.47
2023-04-29T19:36:46.195Z,99919.59
2023-04-29T19:39:14.459Z,99913.47
2023-04-29T19:41:41.127Z,99922.22
2023-04-29T19:44:07.632Z,99922.78
2023-04-29T19:46:34.345Z,99926.38
2023-04-29T19:49:01.825Z,99923.28
2023-04-29T19:51:28.490Z,99925.25
2023-04-29T19:53:56.717Z,99927.53
2023-04-29T19:56:23.352Z,99925.97
2023-04-29T19:58:50.404Z,99926.91
2023-04-29T20:01:17.346Z,99933.50
2023-04-29T20:03:43.988Z,99928.41
2023-04-29T20:06:11.010Z,99930.00
2023-04-29T20:08:37.698Z,99923.78
2023-04-29T20:11:04.714Z,99923.13
2023-04-29T20:13:31.247Z,99923.75
2023-04-29T20:15:57.882Z,99927.19
2023-04-29T20:18:25.113Z,99928.34
2023-04-29T20:20:51.754Z,99925.06
2023-04-29T20:23:18.470Z,99923.09
2023-04-29T20:25:45.014Z,99915.28
2023-04-29T20:28:11.634Z,99914.72
2023-04-29T20:30:38.242Z,99922.72
2023-04-29T20:33:05.839Z,99912.88
2023-04-29T20:35:33.509Z,99913.34
2023-04-29T20:38:00.318Z,99922.00
2023-04-29T20:40:26.798Z,99923.84
2023-04-29T20:42:53.277Z,99919.81
2023-04-29T20:45:19.739Z,99919.44
2023-04-29T20:47:46.828Z,99922.38
2023-04-29T20:50:13.414Z,99919.47
2023-04-29T20:52:40.376Z,99914.22
2023-04-29T20:55:06.912Z,99910.28
2023-04-29T20:57:33.447Z,99913.97
2023-04-29T20:59:59.987Z,99918.72
2023-04-29T21:02:26.459Z,99913.16
2023-04-29T21:04:52.976Z,99916.16
2023-04-29T21:07:19.651Z,99918.81
2023-04-29T21:09:48.562Z,99913.53
2023-04-29T21:12:15.271Z,99933.84
2023-04-29T21:14:42.728Z,99926.38
2023-04-29T21:17:09.419Z,99928.97
2023-04-29T21:19:37.466Z,99930.38
2023-04-29T21:22:04.519Z,99925.28
2023-04-29T21:24:31.527Z,99930.91
2023-04-29T21:26:58.204Z,99934.84
2023-04-29T21:29:24.685Z,99931.50
2023-04-29T21:31:51.249Z,99930.75
2023-04-29T21:34:17.873Z,99932.50
2023-04-29T21:36:44.349Z,99925.84
2023-04-29T21:39:11.671Z,99927.22
2023-04-29T21:41:39.153Z,99920.25
2023-04-29T21:44:06.780Z,99919.88
2023-04-29T21:46:34.454Z,99924.28
2023-04-29T21:49:01.410Z,99922.91
2023-04-29T21:51:28.989Z,99920.91
2023-04-29T21:53:55.538Z,99920.25
2023-04-29T21:56:24.423Z,99925.00
2023-04-29T21:58:51.047Z,99919.81
2023-04-29T22:01:27.044Z,99927.78
2023-04-29T22:03:54.989Z,99927.56
2023-04-29T22:06:21.512Z,99927.00
2023-04-29T22:08:48.553Z,99929.81
2023-04-29T22:11:15.155Z,99939.22
2023-04-29T22:13:42.040Z,99935.97
2023-04-29T22:16:08.686Z,99929.97
2023-04-29T22:18:35.468Z,99936.44
2023-04-29T22:21:02.015Z,99938.31
2023-04-29T22:23:28.571Z,99931.19
2023-04-29T22:25:55.077Z,99934.59
2023-04-29T22:28:21.629Z,99936.81
2023-04-29T22:30:48.123Z,99927.66
2023-04-29T22:33:15.158Z,99942.91
2023-04-29T22:35:41.711Z,99935.09
2023-04-29T22:38:08.238Z,99925.28
2023-04-29T22:40:35.661Z,99939.72
2023-04-29T22:43:03.517Z,99941.88
2023-04-29T22:45:30.020Z,99939.06
2023-04-29T22:47:56.630Z,99941.59
2023-04-29T22:50:23.139Z,99942.97
2023-04-29T22:52:49.636Z,99941.31
2023-04-29T22:55:16.238Z,99944.88
2023-04-29T22:57:42.821Z,99946.44
2023-04-29T23:00:09.888Z,99948.81
2023-04-29T23:02:36.515Z,99945.19
2023-04-29T23:05:03.739Z,99937.22
2023-04-29T23:07:30.344Z,99940.41
2023-04-29T23:09:57.126Z,99943.81
2023-04-29T23:12:24.756Z,99942.81
2023-04-29T23:14:51.348Z,99942.94
2023-04-29T23:17:17.909Z,99938.38
2023-04-29T23:19:44.466Z,99930.75
2023-04-29T23:22:10.969Z,99931.09
2023-04-29T23:24:38.263Z,99932.09
2023-04-29T23:27:04.794Z,99927.34
2023-04-29T23:29:35.135Z,99929.03
2023-04-29T23:32:01.653Z,99935.31
2023-04-29T23:34:28.171Z,99927.19
2023-04-29T23:36:54.696Z,99934.28
2023-04-29T23:39:21.279Z,99927.34
2023-04-29T23:41:47.777Z,99926.50
2023-04-29T23:44:14.281Z,99917.66
2023-04-29T23:46:40.880Z,99914.78
2023-04-29T23:49:07.403Z,99922.91
2023-04-29T23:51:34.097Z,99923.63
2023-04-29T23:54:00.917Z,99923.13
2023-04-29T23:56:29.051Z,99918.38
2023-04-29T23:58:55.694Z,99935.03
